Time;durP1;ratioP1;P1;durP2;ratioP2;P2;SDS_P1;SDS_P2;PMS_P1;PMS_P2;Temp;Humidity;BMP_temperature;BMP_pressure;BME280_temperature;BME280_humidity;BME280_pressure;Samples;Min_cycle;Max_cycle;Signal;HPM_P1;HPM_P2
2022/04/09 00:00:10;;;;;;;1.50;1.37;;;9.70;99.90;;;;;;5030891;28;20440;-45
2022/04/09 00:02:39;;;;;;;2.03;1.20;;;9.70;99.90;;;;;;5024468;28;20539;-48
2022/04/09 00:05:09;;;;;;;2.73;1.30;;;9.70;99.90;;;;;;5016712;28;20833;-48
2022/04/09 00:07:37;;;;;;;1.30;1.20;;;9.70;99.90;;;;;;5030776;28;20424;-48
2022/04/09 00:10:07;;;;;;;2.53;1.30;;;9.70;99.90;;;;;;4997544;28;20443;-45
2022/04/09 00:12:36;;;;;;;1.77;1.10;;;9.70;99.90;;;;;;5012840;28;20996;-46
2022/04/09 00:15:05;;;;;;;1.40;1.27;;;9.70;99.90;;;;;;5011484;28;20456;-47
2022/04/09 00:17:38;;;;;;;2.43;1.20;;;9.70;99.90;;;;;;5010142;28;20446;-48
2022/04/09 00:20:07;;;;;;;2.25;1.42;;;9.70;99.90;;;;;;4997225;28;20832;-45
2022/04/09 00:22:36;;;;;;;2.73;1.63;;;9.70;99.90;;;;;;5013680;28;20308;-48
2022/04/09 00:25:05;;;;;;;2.03;1.93;;;9.70;99.90;;;;;;5023581;28;20460;-47
2022/04/09 00:27:34;;;;;;;2.23;1.50;;;9.70;99.90;;;;;;5031422;28;20460;-47
2022/04/09 00:30:03;;;;;;;2.93;1.30;;;9.70;99.90;;;;;;5011198;28;20472;-46
2022/04/09 00:32:31;;;;;;;2.27;1.63;;;9.70;99.90;;;;;;5000595;28;20452;-47
2022/04/09 00:35:01;;;;;;;2.23;1.20;;;9.70;99.90;;;;;;5030738;28;21162;-46
2022/04/09 00:37:29;;;;;;;2.55;1.50;;;9.70;99.90;;;;;;5030965;28;20440;-46
2022/04/09 00:39:57;;;;;;;3.53;2.07;;;9.70;99.90;;;;;;5023664;28;20450;-48
2022/04/09 00:42:26;;;;;;;1.73;1.27;;;9.70;99.90;;;;;;5032598;28;20559;-48
2022/04/09 00:44:55;;;;;;;2.60;1.10;;;9.70;99.90;;;;;;5030392;28;20494;-48
2022/04/09 00:47:23;;;;;;;6.80;2.33;;;9.60;99.90;;;;;;5020099;28;20448;-46
2022/04/09 00:49:51;;;;;;;1.83;1.50;;;9.70;99.90;;;;;;5031860;28;21068;-46
2022/04/09 00:52:21;;;;;;;1.60;1.40;;;9.70;99.90;;;;;;5032184;28;20536;-47
2022/04/09 00:54:51;;;;;;;2.80;1.30;;;9.70;99.90;;;;;;5019053;28;20642;-46
2022/04/09 00:57:21;;;;;;;3.53;1.50;;;9.70;99.90;;;;;;5031197;28;20914;-47
2022/04/09 00:59:51;;;;;;;1.70;1.57;;;9.60;99.90;;;;;;5031239;28;20903;-48
2022/04/09 01:02:19;;;;;;;1.87;1.40;;;9.70;99.90;;;;;;5027669;28;20542;-47
2022/04/09 01:04:50;;;;;;;5.23;1.43;;;9.60;99.90;;;;;;4999740;28;20976;-46
2022/04/09 01:07:20;;;;;;;1.77;1.37;;;9.60;99.90;;;;;;5012354;28;20538;-47
2022/04/09 01:09:48;;;;;;;2.50;1.47;;;9.60;99.90;;;;;;5021632;28;20472;-48
2022/04/09 01:12:16;;;;;;;1.53;1.40;;;9.60;99.90;;;;;;5029809;28;20747;-46
2022/04/09 01:14:45;;;;;;;2.93;1.40;;;9.60;99.90;;;;;;5029351;28;21017;-47
2022/04/09 01:17:14;;;;;;;2.63;1.47;;;9.60;99.90;;;;;;5027480;28;20461;-47
2022/04/09 01:19:43;;;;;;;1.90;1.30;;;9.60;99.90;;;;;;5008537;28;20468;-48
2022/04/09 01:22:12;;;;;;;2.67;1.40;;;9.60;99.90;;;;;;5010668;28;20457;-49
2022/04/09 01:24:41;;;;;;;1.27;1.17;;;9.60;99.90;;;;;;5026522;28;20472;-49
2022/04/09 01:27:10;;;;;;;4.10;1.63;;;9.60;99.90;;;;;;5030305;28;20440;-46
2022/04/09 01:29:43;;;;;;;2.50;1.33;;;9.60;99.90;;;;;;5029816;28;20876;-46
2022/04/09 01:32:11;;;;;;;3.53;1.50;;;9.60;99.90;;;;;;5022869;28;20707;-47
2022/04/09 01:34:40;;;;;;;2.47;1.47;;;9.60;99.90;;;;;;5028391;28;20499;-45
2022/04/09 01:37:08;;;;;;;2.50;2.13;;;9.60;99.90;;;;;;5029932;28;20527;-47
2022/04/09 01:39:39;;;;;;;1.40;1.30;;;9.60;99.90;;;;;;5025395;28;20994;-46
2022/04/09 01:42:10;;;;;;;1.60;0.90;;;9.60;99.90;;;;;;5029430;28;20456;-48
2022/04/09 01:44:40;;;;;;;1.70;1.53;;;9.60;99.90;;;;;;5028539;28;20855;-48
2022/04/09 01:47:08;;;;;;;1.80;1.37;;;9.60;99.90;;;;;;5029407;28;20447;-46
2022/04/09 01:49:37;;;;;;;1.80;1.30;;;9.50;99.90;;;;;;5030425;28;20471;-47
2022/04/09 01:52:05;;;;;;;2.87;1.57;;;9.50;99.90;;;;;;5031265;28;20447;-47
2022/04/09 01:54:54;;;;;;;3.17;1.60;;;9.60;99.90;;;;;;5020120;28;20482;-46
2022/04/09 01:57:41;;;;;;;3.00;1.58;;;9.60;99.90;;;;;;5031757;28;20436;-47
2022/04/09 02:00:28;;;;;;;3.13;1.17;;;9.50;99.90;;;;;;5039752;28;20566;-47
2022/04/09 02:03:15;;;;;;;2.67;1.38;;;9.50;99.90;;;;;;5028328;28;20611;-46
2022/04/09 02:05:43;;;;;;;3.07;1.60;;;9.50;99.90;;;;;;5029309;28;20308;-47
2022/04/09 02:08:11;;;;;;;1.40;1.03;;;9.50;99.90;;;;;;5024413;28;20480;-47
2022/04/09 02:10:41;;;;;;;2.33;1.50;;;9.50;99.90;;;;;;5027727;28;20855;-48
2022/04/09 02:13:12;;;;;;;2.80;1.63;;;9.50;99.90;;;;;;5029784;28;20499;-48
2022/04/09 02:15:41;;;;;;;1.80;1.20;;;9.50;99.90;;;;;;5029226;28;20456;-47
2022/04/09 02:18:09;;;;;;;1.80;1.40;;;9.50;99.90;;;;;;5022847;28;20494;-48
2022/04/09 02:20:38;;;;;;;1.60;1.35;;;9.50;99.90;;;;;;5025558;28;20435;-47
2022/04/09 02:23:06;;;;;;;3.80;1.80;;;9.50;99.90;;;;;;5024418;28;20769;-44
2022/04/09 02:25:34;;;;;;;2.15;1.50;;;9.50;99.90;;;;;;5024843;28;20452;-47
2022/04/09 02:28:04;;;;;;;4.00;1.83;;;9.50;99.90;;;;;;5028070;28;20308;-46
2022/04/09 02:30:32;;;;;;;2.87;1.17;;;9.50;99.90;;;;;;5030613;28;20444;-47
2022/04/09 02:33:03;;;;;;;1.67;1.00;;;9.50;99.90;;;;;;5016082;28;20462;-47
2022/04/09 02:35:37;;;;;;;4.70;1.70;;;9.50;99.90;;;;;;5029128;28;20470;-48
2022/04/09 02:38:09;;;;;;;2.63;1.60;;;9.50;99.90;;;;;;5027519;28;20217;-49
2022/04/09 02:40:38;;;;;;;2.70;1.60;;;9.50;99.90;;;;;;5030428;28;20663;-46
2022/04/09 02:43:09;;;;;;;5.07;1.27;;;9.50;99.90;;;;;;5027983;28;20549;-45
2022/04/09 02:45:38;;;;;;;2.47;1.90;;;9.50;99.90;;;;;;5029028;28;20545;-47
2022/04/09 02:48:10;;;;;;;2.20;1.47;;;9.50;99.90;;;;;;5027234;28;20495;-47
2022/04/09 02:50:38;;;;;;;1.70;1.40;;;9.50;99.90;;;;;;5030628;28;20440;-48
2022/04/09 02:53:06;;;;;;;1.73;1.40;;;9.50;99.90;;;;;;5025715;28;20612;-46
2022/04/09 02:55:34;;;;;;;3.13;1.37;;;9.50;99.90;;;;;;5024207;28;20492;-45
2022/04/09 02:58:02;;;;;;;3.60;1.80;;;9.50;99.90;;;;;;5028353;28;20483;-47
2022/04/09 03:00:35;;;;;;;2.38;1.70;;;9.50;99.90;;;;;;5028155;28;20436;-47
2022/04/09 03:03:05;;;;;;;2.20;1.80;;;9.50;99.90;;;;;;5021990;28;20213;-46
2022/04/09 03:05:46;;;;;;;2.87;1.97;;;9.40;99.90;;;;;;5008305;28;20432;-46
2022/04/09 03:08:14;;;;;;;4.85;1.40;;;9.50;99.90;;;;;;5011292;28;20589;-47
2022/04/09 03:10:42;;;;;;;3.33;1.60;;;9.50;99.90;;;;;;5019898;28;20230;-47
2022/04/09 03:13:10;;;;;;;2.08;1.55;;;9.50;99.90;;;;;;5028370;28;20559;-47
2022/04/09 03:15:41;;;;;;;2.65;1.75;;;9.50;99.90;;;;;;5029962;28;20217;-47
2022/04/09 03:18:10;;;;;;;3.43;1.50;;;9.40;99.90;;;;;;5011839;28;20591;-48
2022/04/09 03:20:39;;;;;;;1.60;1.50;;;9.40;99.90;;;;;;5029237;28;20450;-47
2022/04/09 03:23:08;;;;;;;2.88;1.75;;;9.40;99.90;;;;;;5023905;28;20474;-49
2022/04/09 03:25:48;;;;;;;3.50;1.33;;;9.40;99.90;;;;;;5025542;28;20660;-48
2022/04/09 03:28:19;;;;;;;2.37;1.40;;;9.40;99.90;;;;;;5028594;28;20470;-47
2022/04/09 03:30:50;;;;;;;3.17;1.70;;;9.40;99.90;;;;;;5028829;28;20449;-47
2022/04/09 03:33:19;;;;;;;2.93;1.40;;;9.40;99.90;;;;;;5022504;28;20479;-47
2022/04/09 03:35:54;;;;;;;3.60;1.30;;;9.40;99.90;;;;;;5031703;28;20805;-47
2022/04/09 03:38:24;;;;;;;2.20;1.20;;;9.40;99.90;;;;;;5025993;28;20526;-47
2022/04/09 03:40:56;;;;;;;4.20;1.92;;;9.40;99.90;;;;;;5030961;28;20962;-48
2022/04/09 03:43:32;;;;;;;3.30;1.40;;;9.40;99.90;;;;;;5031404;28;20222;-47
2022/04/09 03:46:02;;;;;;;4.05;1.95;;;9.40;99.90;;;;;;5031967;28;20469;-47
2022/04/09 03:48:30;;;;;;;7.70;1.98;;;9.40;99.90;;;;;;5030141;28;20243;-47
2022/04/09 03:50:59;;;;;;;2.50;1.40;;;9.40;99.90;;;;;;5031790;28;20279;-47
2022/04/09 03:53:28;;;;;;;3.28;1.30;;;9.40;99.90;;;;;;5024898;28;20888;-47
2022/04/09 03:56:01;;;;;;;2.08;1.45;;;9.40;99.90;;;;;;5031135;28;20255;-48
2022/04/09 03:58:33;;;;;;;2.08;1.45;;;9.40;99.90;;;;;;5029339;28;20307;-47
2022/04/09 04:01:03;;;;;;;3.55;1.60;;;9.30;99.90;;;;;;5033826;28;20255;-47
2022/04/09 04:03:34;;;;;;;1.92;1.58;;;9.30;99.90;;;;;;5027730;28;20240;-46
2022/04/09 04:06:03;;;;;;;4.13;1.75;;;9.40;99.90;;;;;;5030716;28;20617;-47
2022/04/09 04:08:32;;;;;;;1.85;1.17;;;9.30;99.90;;;;;;5029656;28;20309;-48
2022/04/09 04:11:01;;;;;;;3.35;1.80;;;9.30;99.90;;;;;;5031863;28;20231;-46
2022/04/09 04:13:35;;;;;;;1.70;1.60;;;9.30;99.90;;;;;;5031460;28;20674;-47
2022/04/09 04:16:06;;;;;;;1.92;1.55;;;9.30;99.90;;;;;;5029531;28;20283;-47
2022/04/09 04:18:39;;;;;;;3.10;1.33;;;9.30;99.90;;;;;;5027528;28;20594;-47
2022/04/09 04:21:10;;;;;;;3.55;1.42;;;9.30;99.90;;;;;;5031863;28;20187;-46
2022/04/09 04:23:41;;;;;;;2.83;1.50;;;9.30;99.90;;;;;;5033590;28;20225;-47
2022/04/09 04:26:16;;;;;;;2.08;1.52;;;9.30;99.90;;;;;;5033018;28;20732;-45
2022/04/09 04:28:52;;;;;;;4.72;1.52;;;9.30;99.90;;;;;;5030473;28;20223;-45
2022/04/09 04:31:23;;;;;;;4.20;1.20;;;9.30;99.90;;;;;;5027205;28;20228;-47
2022/04/09 04:33:52;;;;;;;4.60;1.40;;;9.30;99.90;;;;;;5000896;28;20229;-46
2022/04/09 04:36:21;;;;;;;4.28;1.70;;;9.30;99.90;;;;;;5010130;28;20461;-48
2022/04/09 04:38:49;;;;;;;2.22;1.58;;;9.30;99.90;;;;;;5017868;28;20247;-48
2022/04/09 04:41:17;;;;;;;4.93;1.42;;;9.30;99.90;;;;;;5018300;28;20193;-47
2022/04/09 04:43:51;;;;;;;2.10;1.40;;;9.30;99.90;;;;;;5031021;28;20278;-46
2022/04/09 04:46:23;;;;;;;4.93;1.95;;;9.30;99.90;;;;;;5028753;28;20435;-48
2022/04/09 04:49:03;;;;;;;2.67;1.30;;;9.30;99.90;;;;;;5016121;28;20222;-45
2022/04/09 04:51:33;;;;;;;2.03;1.30;;;9.30;99.90;;;;;;5031460;28;20220;-45
2022/04/09 04:54:03;;;;;;;3.28;1.33;;;9.30;99.90;;;;;;5028350;28;20475;-50
2022/04/09 04:56:32;;;;;;;3.40;1.20;;;9.30;99.90;;;;;;5030445;28;20195;-46
2022/04/09 04:59:02;;;;;;;2.57;1.40;;;9.30;99.90;;;;;;5030664;28;20509;-48
2022/04/09 05:01:32;;;;;;;2.47;1.50;;;9.20;99.90;;;;;;5030714;28;20439;-48
2022/04/09 05:04:05;;;;;;;2.10;1.40;;;9.20;99.90;;;;;;5028772;28;20224;-47
2022/04/09 05:06:36;;;;;;;2.00;1.38;;;9.20;99.90;;;;;;5030751;28;20599;-45
2022/04/09 05:09:06;;;;;;;4.97;2.20;;;9.20;99.90;;;;;;5025110;28;20208;-47
2022/04/09 05:11:46;;;;;;;4.70;1.90;;;9.20;99.90;;;;;;5030950;28;20412;-45
2022/04/09 05:14:18;;;;;;;3.67;1.70;;;9.20;99.90;;;;;;5029474;28;20561;-46
2022/04/09 05:16:53;;;;;;;3.38;1.10;;;9.20;99.90;;;;;;5027693;28;20219;-47
2022/04/09 05:19:21;;;;;;;2.28;1.15;;;9.20;99.90;;;;;;5031020;28;20243;-46
2022/04/09 05:22:00;;;;;;;4.53;1.80;;;9.20;99.90;;;;;;5030682;28;20276;-47
2022/04/09 05:24:32;;;;;;;5.63;1.73;;;9.20;99.90;;;;;;5014627;28;20229;-46
2022/04/09 05:27:01;;;;;;;4.50;1.50;;;9.20;99.90;;;;;;5029712;28;20210;-48
2022/04/09 05:29:34;;;;;;;3.17;2.13;;;9.20;99.90;;;;;;5029229;28;20475;-46
2022/04/09 05:32:05;;;;;;;2.70;1.40;;;9.20;99.90;;;;;;5024903;28;20210;-47
2022/04/09 05:34:35;;;;;;;3.00;1.77;;;9.20;99.90;;;;;;5028566;28;20223;-45
2022/04/09 05:37:03;;;;;;;4.57;1.45;;;9.20;99.90;;;;;;5030621;28;20201;-46
2022/04/09 05:39:32;;;;;;;2.90;1.80;;;9.20;99.90;;;;;;5022607;28;20225;-45
2022/04/09 05:42:02;;;;;;;1.70;1.55;;;9.20;99.90;;;;;;5029444;28;20193;-47
2022/04/09 05:44:49;;;;;;;3.30;1.70;;;9.20;99.90;;;;;;5030740;28;20246;-45
2022/04/09 05:47:41;;;;;;;3.28;2.05;;;9.10;99.90;;;;;;5028606;28;20439;-47
2022/04/09 05:50:13;;;;;;;4.95;1.90;;;9.20;99.90;;;;;;5029988;28;20198;-44
2022/04/09 05:52:43;;;;;;;2.50;1.45;;;9.20;99.90;;;;;;5029051;28;20207;-47
2022/04/09 05:55:15;;;;;;;3.10;1.40;;;9.20;99.90;;;;;;5044495;28;20207;-46
2022/04/09 05:57:44;;;;;;;3.40;1.20;;;9.10;99.90;;;;;;5028928;28;20209;-49
2022/04/09 06:00:16;;;;;;;3.17;1.50;;;9.10;99.90;;;;;;5029689;28;20710;-46
2022/04/09 06:03:01;;;;;;;2.17;1.27;;;9.20;99.90;;;;;;5019327;28;20226;-48
2022/04/09 06:05:36;;;;;;;4.72;1.50;;;9.10;99.90;;;;;;5028388;28;20217;-47
2022/04/09 06:08:10;;;;;;;4.60;1.55;;;9.10;99.90;;;;;;5028188;28;20232;-46
2022/04/09 06:10:39;;;;;;;2.30;1.33;;;9.10;99.90;;;;;;5028866;28;20579;-48
2022/04/09 06:13:08;;;;;;;2.13;1.40;;;9.10;99.90;;;;;;5027297;28;20284;-46
2022/04/09 06:15:36;;;;;;;2.20;1.55;;;9.10;99.90;;;;;;5021118;28;20575;-45
2022/04/09 06:18:12;;;;;;;4.50;1.77;;;9.10;99.90;;;;;;5026556;28;20225;-47
2022/04/09 06:20:40;;;;;;;5.43;1.65;;;9.10;99.90;;;;;;5027224;28;20196;-48
2022/04/09 06:23:12;;;;;;;2.53;1.65;;;9.10;99.90;;;;;;5004581;28;20236;-47
2022/04/09 06:25:41;;;;;;;3.67;1.23;;;9.10;99.90;;;;;;5005782;28;20783;-46
2022/04/09 06:28:12;;;;;;;3.97;1.85;;;9.10;99.90;;;;;;5014881;28;20544;-46
2022/04/09 06:30:43;;;;;;;3.75;1.65;;;9.10;99.90;;;;;;5029567;28;20368;-46
2022/04/09 06:33:21;;;;;;;5.30;2.17;;;9.10;99.90;;;;;;5026859;28;20220;-46
2022/04/09 06:35:50;;;;;;;2.10;1.25;;;9.10;99.90;;;;;;5027332;28;20600;-46
2022/04/09 06:38:22;;;;;;;5.00;1.60;;;9.10;99.90;;;;;;5022806;28;20217;-49
2022/04/09 06:40:51;;;;;;;3.45;1.50;;;9.10;99.90;;;;;;5025968;28;20194;-47
2022/04/09 06:43:26;;;;;;;2.00;1.10;;;9.10;99.90;;;;;;5028695;28;20704;-48
2022/04/09 06:46:25;;;;;;;3.40;1.70;;;9.10;99.90;;;;;;5026444;28;20216;-45
2022/04/09 06:49:28;;;;;;;3.30;1.40;;;9.10;99.90;;;;;;4999178;28;20221;-48
2022/04/09 06:52:07;;;;;;;2.10;1.50;;;9.20;99.90;;;;;;5028337;28;20467;-47
2022/04/09 06:54:55;;;;;;;1.77;1.40;;;9.20;99.90;;;;;;5025595;28;20479;-46
2022/04/09 06:57:23;;;;;;;3.60;1.20;;;9.20;99.90;;;;;;5028955;28;20194;-46
2022/04/09 06:59:56;;;;;;;2.83;1.50;;;9.20;99.90;;;;;;5028369;28;21015;-46
2022/04/09 07:02:25;;;;;;;3.95;1.40;;;9.20;99.90;;;;;;5016989;28;20203;-48
2022/04/09 07:04:55;;;;;;;2.95;1.55;;;9.20;99.90;;;;;;5026228;28;20224;-47
2022/04/09 07:07:24;;;;;;;3.13;1.20;;;9.20;99.90;;;;;;5029898;28;20290;-48
2022/04/09 07:09:55;;;;;;;2.25;1.30;;;9.30;99.90;;;;;;5025367;28;20509;-46
2022/04/09 07:12:24;;;;;;;2.33;1.13;;;9.20;99.90;;;;;;5034118;28;20225;-48
2022/04/09 07:14:52;;;;;;;3.15;1.23;;;9.30;99.90;;;;;;5031458;28;20479;-46
2022/04/09 07:17:20;;;;;;;3.53;1.35;;;9.30;99.90;;;;;;5033452;28;20616;-48
2022/04/09 07:19:49;;;;;;;4.10;1.40;;;9.30;99.90;;;;;;5028508;28;20238;-47
2022/04/09 07:22:18;;;;;;;3.03;1.80;;;9.30;99.90;;;;;;5034755;28;20486;-46
2022/04/09 07:24:46;;;;;;;3.33;1.63;;;9.30;99.90;;;;;;5009135;28;20715;-47
2022/04/09 07:27:14;;;;;;;2.10;1.57;;;9.30;99.90;;;;;;5013948;28;20859;-48
2022/04/09 07:29:43;;;;;;;3.10;1.58;;;9.30;99.90;;;;;;5031064;28;20477;-47
2022/04/09 07:32:11;;;;;;;3.97;1.35;;;9.30;99.90;;;;;;5033271;28;20199;-48
2022/04/09 07:34:39;;;;;;;4.45;1.45;;;9.30;99.90;;;;;;5022901;28;20738;-47
2022/04/09 07:37:08;;;;;;;1.73;1.33;;;9.30;99.90;;;;;;5033499;28;20230;-48
2022/04/09 07:39:38;;;;;;;6.53;2.63;;;9.30;99.90;;;;;;5024568;28;20477;-48
2022/04/09 07:42:07;;;;;;;4.88;1.45;;;9.30;99.90;;;;;;5032433;28;20192;-46
2022/04/09 07:44:35;;;;;;;5.63;1.75;;;9.30;99.90;;;;;;5030482;28;20214;-47
2022/04/09 07:47:04;;;;;;;3.83;1.98;;;9.30;99.90;;;;;;5030257;28;20183;-48
2022/04/09 07:49:32;;;;;;;4.95;1.75;;;9.20;99.90;;;;;;5032466;28;20266;-49
2022/04/09 07:52:00;;;;;;;4.53;2.58;;;9.20;99.90;;;;;;5033141;28;20559;-47
2022/04/09 07:54:29;;;;;;;2.97;2.07;;;9.30;99.90;;;;;;5023566;28;20220;-47
2022/04/09 07:56:58;;;;;;;3.40;2.13;;;9.30;99.90;;;;;;5033406;28;20805;-46
2022/04/09 07:59:27;;;;;;;3.95;2.05;;;9.30;99.90;;;;;;5015062;28;20533;-47
2022/04/09 08:01:55;;;;;;;4.10;1.80;;;9.30;99.90;;;;;;5008503;28;20214;-45
2022/04/09 08:04:24;;;;;;;11.48;2.28;;;9.30;99.90;;;;;;5012624;28;20485;-48
2022/04/09 08:06:52;;;;;;;10.38;2.10;;;9.30;99.90;;;;;;5023606;28;20281;-46
2022/04/09 08:09:20;;;;;;;3.65;2.50;;;9.30;99.90;;;;;;5028195;28;20247;-48
2022/04/09 08:11:48;;;;;;;5.53;2.50;;;9.30;99.90;;;;;;5032563;28;20236;-48
2022/04/09 08:14:19;;;;;;;4.15;1.83;;;9.30;99.90;;;;;;5026214;28;20214;-45
2022/04/09 08:16:47;;;;;;;3.38;1.70;;;9.20;99.90;;;;;;5032576;28;20541;-47
2022/04/09 08:19:16;;;;;;;2.75;1.80;;;9.30;99.90;;;;;;5031409;28;20695;-46
2022/04/09 08:21:44;;;;;;;4.15;1.77;;;9.30;99.90;;;;;;5032362;28;20209;-45
2022/04/09 08:24:13;;;;;;;2.13;1.92;;;9.30;99.90;;;;;;5026642;28;20243;-46
2022/04/09 08:26:41;;;;;;;3.38;1.80;;;9.30;99.90;;;;;;5032049;28;20300;-47
2022/04/09 08:29:10;;;;;;;3.03;1.88;;;9.30;99.90;;;;;;5030206;28;20761;-48
2022/04/09 08:31:41;;;;;;;4.32;2.22;;;9.20;99.90;;;;;;5029745;28;20525;-48
2022/04/09 08:34:09;;;;;;;4.07;2.05;;;9.20;99.90;;;;;;5018948;28;20787;-48
2022/04/09 08:36:37;;;;;;;3.40;1.95;;;9.20;99.90;;;;;;5033123;28;20255;-47
2022/04/09 08:39:06;;;;;;;5.07;1.75;;;9.20;99.90;;;;;;5023063;28;20213;-47
2022/04/09 08:41:36;;;;;;;3.20;1.88;;;9.20;99.90;;;;;;5033909;28;20282;-48
2022/04/09 08:44:05;;;;;;;3.95;1.77;;;9.20;99.90;;;;;;5027814;28;20250;-44
2022/04/09 08:46:34;;;;;;;1.40;1.30;;;9.20;99.90;;;;;;5029362;28;20226;-48
2022/04/09 08:49:06;;;;;;;3.23;1.30;;;9.20;99.90;;;;;;5024513;28;20482;-46
2022/04/09 08:51:35;;;;;;;2.60;1.90;;;9.20;99.90;;;;;;5032010;28;20534;-47
2022/04/09 08:54:04;;;;;;;4.35;1.70;;;9.20;99.90;;;;;;5029082;28;20281;-49
2022/04/09 08:56:38;;;;;;;2.63;1.25;;;9.20;99.90;;;;;;5032034;28;20202;-47
2022/04/09 08:59:06;;;;;;;2.92;1.83;;;9.20;99.90;;;;;;5029224;28;20219;-47
2022/04/09 09:01:35;;;;;;;1.40;1.30;;;9.20;99.90;;;;;;5019877;28;20646;-49
2022/04/09 09:04:05;;;;;;;3.77;1.80;;;9.20;99.90;;;;;;5029376;28;20487;-49
2022/04/09 09:06:35;;;;;;;2.60;1.80;;;9.20;99.90;;;;;;5029716;28;21055;-47
2022/04/09 09:09:05;;;;;;;5.63;2.30;;;9.20;99.90;;;;;;5027384;28;20474;-48
2022/04/09 09:11:46;;;;;;;2.28;1.90;;;9.20;99.90;;;;;;5029493;28;20215;-48
2022/04/09 09:14:26;;;;;;;4.20;1.40;;;9.30;99.90;;;;;;5028052;28;20282;-46
2022/04/09 09:16:58;;;;;;;3.00;1.40;;;9.30;99.90;;;;;;5027562;28;20496;-48
2022/04/09 09:19:42;;;;;;;4.10;1.73;;;9.30;99.90;;;;;;5023835;28;20227;-49
2022/04/09 09:22:10;;;;;;;6.82;1.70;;;9.30;99.90;;;;;;5030630;28;20445;-47
2022/04/09 09:24:39;;;;;;;5.85;2.03;;;9.30;99.90;;;;;;5020024;28;20700;-46
2022/04/09 09:27:08;;;;;;;6.47;1.70;;;9.30;99.90;;;;;;5028858;28;20205;-47
2022/04/09 09:29:39;;;;;;;2.15;1.35;;;9.30;99.90;;;;;;5013560;28;20468;-48
2022/04/09 09:32:09;;;;;;;2.80;1.23;;;9.20;99.90;;;;;;5007743;28;20213;-49
2022/04/09 09:34:37;;;;;;;3.15;1.65;;;9.20;99.90;;;;;;5026194;28;20224;-48
2022/04/09 09:37:21;;;;;;;8.30;1.92;;;9.30;99.90;;;;;;5028285;28;20674;-47
2022/04/09 09:39:50;;;;;;;4.40;1.80;;;9.30;99.90;;;;;;5023935;28;20267;-46
2022/04/09 09:42:19;;;;;;;3.58;1.85;;;9.30;99.90;;;;;;5023704;28;20445;-47
2022/04/09 09:44:48;;;;;;;2.30;1.50;;;9.30;99.90;;;;;;5012070;28;20234;-47
2022/04/09 09:47:17;;;;;;;3.20;1.57;;;9.30;99.90;;;;;;5001596;28;20215;-46
2022/04/09 09:49:53;;;;;;;2.20;1.40;;;9.30;99.90;;;;;;5022431;28;21068;-47
2022/04/09 09:52:27;;;;;;;7.05;2.20;;;9.20;99.90;;;;;;5025014;28;20450;-46
2022/04/09 09:54:57;;;;;;;11.50;3.80;;;9.20;99.90;;;;;;5022985;28;20279;-46
2022/04/09 09:57:28;;;;;;;3.40;1.40;;;9.30;99.90;;;;;;5030613;28;20435;-47
2022/04/09 10:00:04;;;;;;;3.90;2.05;;;9.30;99.90;;;;;;5021685;28;20846;-46
2022/04/09 10:02:35;;;;;;;7.20;2.78;;;9.30;99.90;;;;;;5024514;28;20203;-47
2022/04/09 10:05:04;;;;;;;1.77;1.67;;;9.30;99.90;;;;;;5029341;28;20333;-47
2022/04/09 10:07:35;;;;;;;2.20;1.43;;;9.30;99.90;;;;;;5023268;28;20473;-47
2022/04/09 10:10:05;;;;;;;3.28;1.70;;;9.30;99.90;;;;;;5004330;28;20950;-44
2022/04/09 10:12:39;;;;;;;3.13;1.60;;;9.20;99.90;;;;;;5006952;28;20225;-47
2022/04/09 10:15:09;;;;;;;5.38;1.80;;;9.30;99.90;;;;;;5028650;28;20455;-45
2022/04/09 10:17:39;;;;;;;3.38;1.25;;;9.30;99.90;;;;;;5020531;28;20196;-48
2022/04/09 10:20:09;;;;;;;3.30;1.88;;;9.20;99.90;;;;;;5030141;28;20681;-46
2022/04/09 10:22:43;;;;;;;4.63;1.43;;;9.30;99.90;;;;;;5027965;28;20196;-46
2022/04/09 10:25:11;;;;;;;1.90;1.23;;;9.20;99.90;;;;;;5028926;28;20507;-44
2022/04/09 10:28:01;;;;;;;7.20;2.47;;;9.30;99.90;;;;;;5028862;28;20465;-47
2022/04/09 10:30:38;;;;;;;2.75;1.60;;;9.20;99.90;;;;;;5029685;28;20473;-46
2022/04/09 10:33:22;;;;;;;3.65;1.30;;;9.20;99.90;;;;;;5021061;28;20714;-47
2022/04/09 10:35:51;;;;;;;2.95;1.48;;;9.30;99.90;;;;;;5023632;28;20195;-47
2022/04/09 10:38:23;;;;;;;9.70;2.10;;;9.30;99.90;;;;;;5022848;28;20229;-44
2022/04/09 10:41:28;;;;;;;1.90;1.40;;;9.30;99.90;;;;;;5026558;28;20454;-44
2022/04/09 10:44:03;;;;;;;9.43;2.42;;;9.30;97.80;;;;;;5028318;28;20469;-46
2022/04/09 10:46:35;;;;;;;4.90;2.23;;;9.40;96.60;;;;;;5023730;28;20580;-45
2022/04/09 10:49:18;;;;;;;3.58;1.73;;;9.40;96.40;;;;;;5024971;28;20518;-45
2022/04/09 10:52:11;;;;;;;7.10;1.70;;;9.40;96.00;;;;;;5026558;28;20231;-47
2022/04/09 10:54:43;;;;;;;4.77;1.90;;;9.50;93.50;;;;;;5009825;28;20480;-49
2022/04/09 10:57:22;;;;;;;8.33;2.17;;;9.50;93.90;;;;;;5008371;28;20954;-46
2022/04/09 10:59:58;;;;;;;5.10;1.53;;;9.50;94.10;;;;;;5024353;28;20606;-45
2022/04/09 11:02:27;;;;;;;2.90;1.52;;;9.60;93.40;;;;;;5021019;28;20542;-46
2022/04/09 11:04:55;;;;;;;5.77;1.80;;;9.50;93.70;;;;;;5006147;28;20619;-47
2022/04/09 11:07:24;;;;;;;7.83;2.30;;;9.60;92.70;;;;;;5009728;28;20463;-47
2022/04/09 11:09:58;;;;;;;8.27;2.70;;;9.60;93.20;;;;;;4992953;28;20503;-47
2022/04/09 11:12:28;;;;;;;7.30;2.60;;;9.60;92.50;;;;;;5000299;28;20448;-45
2022/04/09 11:14:57;;;;;;;6.43;2.20;;;9.70;92.80;;;;;;5001765;28;20851;-45
2022/04/09 11:17:33;;;;;;;9.50;2.40;;;9.70;93.00;;;;;;5006482;28;20471;-47
2022/04/09 11:20:03;;;;;;;3.70;1.50;;;9.60;93.30;;;;;;5008096;28;20220;-46
2022/04/09 11:22:39;;;;;;;4.07;1.83;;;9.60;93.70;;;;;;5005832;28;20444;-44
2022/04/09 11:25:26;;;;;;;4.82;1.90;;;9.50;93.90;;;;;;5005411;28;20461;-46
2022/04/09 11:28:06;;;;;;;7.20;2.00;;;9.50;94.30;;;;;;5007362;28;20204;-46
2022/04/09 11:30:34;;;;;;;10.32;2.45;;;9.50;94.60;;;;;;5008716;28;20480;-46
2022/04/09 11:33:03;;;;;;;29.40;5.38;;;9.50;94.90;;;;;;5007831;28;20248;-45
2022/04/09 11:35:34;;;;;;;16.88;4.07;;;9.50;95.20;;;;;;5008015;28;20573;-43
2022/04/09 11:38:02;;;;;;;8.20;2.65;;;9.50;95.40;;;;;;5004551;28;20221;-46
2022/04/09 11:40:32;;;;;;;9.70;3.40;;;9.50;94.80;;;;;;4991074;28;20612;-45
2022/04/09 11:43:00;;;;;;;18.85;3.80;;;9.40;94.90;;;;;;4990179;28;20457;-48
2022/04/09 11:45:31;;;;;;;18.30;3.92;;;9.40;94.90;;;;;;4990467;28;20222;-46
2022/04/09 11:48:01;;;;;;;14.43;3.87;;;9.40;95.00;;;;;;4997364;28;20260;-48
2022/04/09 11:50:32;;;;;;;9.97;3.70;;;9.40;95.10;;;;;;5009183;28;20518;-44
2022/04/09 11:53:09;;;;;;;9.63;3.42;;;9.40;95.10;;;;;;5006163;28;20461;-47
2022/04/09 11:55:40;;;;;;;15.20;3.53;;;9.40;95.10;;;;;;4992424;28;20313;-46
2022/04/09 11:58:08;;;;;;;16.52;4.03;;;9.40;95.20;;;;;;5011954;28;20253;-45
2022/04/09 12:00:41;;;;;;;12.57;3.72;;;9.40;95.40;;;;;;5011188;28;20186;-46
2022/04/09 12:03:10;;;;;;;11.77;3.88;;;9.40;95.50;;;;;;5007148;28;20294;-46
2022/04/09 12:05:42;;;;;;;7.83;2.80;;;9.30;95.60;;;;;;5012644;28;20249;-45
2022/04/09 12:08:12;;;;;;;7.80;2.47;;;9.40;95.80;;;;;;5024210;28;20502;-48
2022/04/09 12:10:53;;;;;;;7.82;2.40;;;9.40;95.80;;;;;;5032024;28;20195;-48
2022/04/09 12:13:26;;;;;;;8.17;2.10;;;9.30;95.80;;;;;;5031639;28;20224;-45
2022/04/09 12:15:56;;;;;;;9.30;3.38;;;9.30;96.00;;;;;;5029083;28;21042;-46
2022/04/09 12:18:28;;;;;;;6.67;3.20;;;9.30;96.20;;;;;;5026065;28;20856;-46
2022/04/09 12:21:02;;;;;;;8.82;2.20;;;9.40;96.30;;;;;;5012920;28;20535;-47
2022/04/09 12:23:31;;;;;;;11.10;3.63;;;9.30;96.40;;;;;;5013156;28;20220;-47
2022/04/09 12:26:01;;;;;;;4.65;2.25;;;9.30;96.40;;;;;;5029000;28;20812;-44
2022/04/09 12:28:33;;;;;;;10.20;2.50;;;9.30;96.50;;;;;;5029571;28;20250;-46
2022/04/09 12:31:03;;;;;;;9.00;2.30;;;9.30;96.40;;;;;;5030097;28;20448;-43
2022/04/09 12:33:31;;;;;;;7.27;2.00;;;9.30;96.50;;;;;;5032521;28;20223;-44
2022/04/09 12:36:08;;;;;;;5.87;2.20;;;9.40;96.50;;;;;;5032198;28;20468;-45
2022/04/09 12:38:38;;;;;;;12.30;2.70;;;9.30;96.50;;;;;;5017449;28;20572;-46
2022/04/09 12:41:08;;;;;;;7.93;3.75;;;9.40;96.60;;;;;;5010533;28;20194;-44
2022/04/09 12:43:39;;;;;;;6.60;2.83;;;9.40;96.70;;;;;;5017534;28;20710;-47
2022/04/09 12:46:09;;;;;;;5.75;2.80;;;9.40;96.80;;;;;;5028887;28;20521;-44
2022/04/09 12:48:39;;;;;;;7.63;2.30;;;9.40;96.70;;;;;;5020322;28;20230;-46
2022/04/09 12:51:08;;;;;;;7.57;2.90;;;9.40;96.70;;;;;;5011649;28;20197;-45
2022/04/09 12:53:36;;;;;;;6.50;2.70;;;9.40;96.70;;;;;;5011007;28;20216;-46
2022/04/09 12:56:06;;;;;;;5.13;2.35;;;9.40;96.80;;;;;;5037656;28;20185;-46
2022/04/09 12:58:36;;;;;;;5.07;1.92;;;9.40;96.70;;;;;;5031765;28;20229;-45
2022/04/09 13:01:05;;;;;;;7.20;2.35;;;9.40;96.80;;;;;;5022397;28;20225;-45
2022/04/09 13:03:34;;;;;;;2.40;2.15;;;9.40;96.20;;;;;;5028748;28;20300;-45
2022/04/09 13:06:03;;;;;;;4.70;1.98;;;9.40;94.10;;;;;;5025836;28;20199;-47
2022/04/09 13:08:31;;;;;;;4.37;2.00;;;9.40;94.80;;;;;;5024013;28;20587;-46
2022/04/09 13:11:00;;;;;;;4.60;2.38;;;9.40;94.70;;;;;;5028358;28;20440;-47
2022/04/09 13:13:28;;;;;;;4.05;2.03;;;9.30;95.00;;;;;;5027205;28;20233;-45
2022/04/09 13:15:58;;;;;;;2.40;2.03;;;9.40;95.40;;;;;;5027025;28;20212;-44